Ne plus se rappeler de moi
Bonjour et Bienvenue
Pas de session ouverte
Mercredi 23/07/2014
d:\inetpub\wwwroot\acrroussillon\reservation\ACR\IMAGES\IMG1.JPGd:\inetpub\wwwroot\acrroussillon\reservation\ACR\IMAGES\IMG2.JPGd:\inetpub\wwwroot\acrroussillon\reservation\ACR/IMAGES/IMG3.jpg
00:00:00
Horaires du 23/07/2014 (Données à titre indicatif seulement).
Lever du soleil : 06h31 - Coucher du soleil : 21h19 (Heure Locale)
Jour aéronautique : 06h01 - Nuit aéronautique : 21h49 (Heure Locale)
Planning des réservations des aéronefs
Planning des réservations des aéronefs
2014/07/23 11:00
LFMP 231100Z 35007KT 290V060 CAVOK 30/14 Q1011
Planning des réservations des aéronefs
2014/07/23 12:15
TAF LFMP 231100Z 2312/2412 32010KT CAVOK
Informations sur les aéronefs
Informations sur les aéronefs
Modifications des Types de vols
ATTENTION PLUS DE PAIEMENT EN LIGNE DEPUIS LA MAISON
AEROCLUB DU ROUSSILLON. AVENUE MAURICE BELLONTE. 66000 PERPIGNAN. Tel : 04.68.73.48.18 Fax : 09.55.16.18.97 Courriel : aeroclub-roussillon@hotmail.fr
 METAR / TAF
LIENS UTILES
envoyer un e-mail
d:\inetpub\wwwroot\acrroussillon\reservation\ACR/IMAGES/Logo.jpg
Identifiez vous pour interaction
d:\inetpub\wwwroot\acrroussillon\reservation\ACR/IMAGES/Logo.jpg
Aéro-Club du Roussillon